createdAt,value
2023-04-03T00:02:12.323Z,13.20
2023-04-03T00:04:43.233Z,10.60
2023-04-03T00:07:12.403Z,10.40
2023-04-03T00:09:41.715Z,12.23
2023-04-03T00:12:12.245Z,13.07
2023-04-03T00:14:44.489Z,12.30
2023-04-03T00:17:18.004Z,13.70
2023-04-03T00:19:48.309Z,13.27
2023-04-03T00:22:16.946Z,11.27
2023-04-03T00:24:50.170Z,13.93
2023-04-03T00:27:20.910Z,14.60
2023-04-03T00:29:50.764Z,12.43
2023-04-03T00:32:19.753Z,13.33
2023-04-03T00:34:49.753Z,11.67
2023-04-03T00:37:19.082Z,12.67
2023-04-03T00:39:49.121Z,9.53
2023-04-03T00:42:18.706Z,12.10
2023-04-03T00:44:49.270Z,13.97
2023-04-03T00:47:19.818Z,10.90
2023-04-03T00:49:48.560Z,14.47
2023-04-03T00:52:37.531Z,12.17
2023-04-03T00:55:09.922Z,13.47
2023-04-03T00:57:39.598Z,10.73
2023-04-03T01:00:10.970Z,11.97
2023-04-03T01:02:57.967Z,12.87
2023-04-03T01:05:27.202Z,13.13
2023-04-03T01:07:55.990Z,9.20
2023-04-03T01:10:24.448Z,11.87
2023-04-03T01:12:53.071Z,9.60
2023-04-03T01:15:27.658Z,11.50
2023-04-03T01:17:57.958Z,14.53
2023-04-03T01:20:44.052Z,13.17
2023-04-03T01:23:15.381Z,9.80
2023-04-03T01:25:54.907Z,7.83
2023-04-03T01:28:27.462Z,9.37
2023-04-03T01:31:14.130Z,7.17
2023-04-03T01:33:45.506Z,7.90
2023-04-03T01:36:20.362Z,10.13
2023-04-03T01:38:51.354Z,11.47
2023-04-03T01:41:22.903Z,7.67
2023-04-03T01:43:51.154Z,6.40
2023-04-03T01:46:19.724Z,9.83
2023-04-03T01:48:51.277Z,8.33
2023-04-03T01:51:20.157Z,8.10
2023-04-03T01:53:48.491Z,6.40
2023-04-03T01:56:19.366Z,7.73
2023-04-03T01:58:48.426Z,10.50
2023-04-03T02:01:21.466Z,8.27
2023-04-03T02:03:51.179Z,6.43
2023-04-03T02:06:19.365Z,8.73
2023-04-03T02:08:49.320Z,10.10
2023-04-03T02:11:17.852Z,9.80
2023-04-03T02:13:46.190Z,7.97
2023-04-03T02:16:15.044Z,9.07
2023-04-03T02:18:43.234Z,9.57
2023-04-03T02:21:17.002Z,10.57
2023-04-03T02:23:46.114Z,8.93
2023-04-03T02:26:16.515Z,8.90
2023-04-03T02:28:47.518Z,10.33
2023-04-03T02:31:19.399Z,11.43
2023-04-03T02:33:47.619Z,10.23
2023-04-03T02:36:16.242Z,11.53
2023-04-03T02:38:44.915Z,6.70
2023-04-03T02:41:18.024Z,10.70
2023-04-03T02:43:51.964Z,8.83
2023-04-03T02:46:20.240Z,8.43
2023-04-03T02:48:48.419Z,6.17
2023-04-03T02:51:19.513Z,8.10
2023-04-03T02:53:47.679Z,7.93
2023-04-03T02:56:16.166Z,6.23
2023-04-03T02:58:47.579Z,7.90
2023-04-03T03:01:16.866Z,6.03
2023-04-03T03:03:45.969Z,5.77
2023-04-03T03:06:18.096Z,6.57
2023-04-03T03:08:47.562Z,4.80
2023-04-03T03:11:16.081Z,5.73
2023-04-03T03:13:44.396Z,8.10
2023-04-03T03:16:12.837Z,5.23
2023-04-03T03:18:41.873Z,5.87
2023-04-03T03:21:14.118Z,5.20
2023-04-03T03:23:43.255Z,7.03
2023-04-03T03:26:12.623Z,5.73
2023-04-03T03:28:42.358Z,5.47
2023-04-03T03:31:15.616Z,5.80
2023-04-03T03:33:43.769Z,7.07
2023-04-03T03:36:12.282Z,7.13
2023-04-03T03:38:40.634Z,5.07
2023-04-03T03:41:08.762Z,7.23
2023-04-03T03:43:42.907Z,6.60
2023-04-03T03:46:11.236Z,7.47
2023-04-03T03:48:39.182Z,4.93
2023-04-03T03:51:07.611Z,5.47
2023-04-03T03:53:39.961Z,4.83
2023-04-03T03:56:11.827Z,5.93
2023-04-03T03:58:59.874Z,7.07
2023-04-03T04:01:27.963Z,5.97
2023-04-03T04:03:58.136Z,6.00
2023-04-03T04:06:27.632Z,7.43
2023-04-03T04:08:57.307Z,7.37
2023-04-03T04:11:26.303Z,6.03
2023-04-03T04:13:54.535Z,6.77
2023-04-03T04:16:25.469Z,5.50
2023-04-03T04:18:53.590Z,5.00
2023-04-03T04:21:25.484Z,5.17
2023-04-03T04:23:59.959Z,6.27
2023-04-03T04:26:29.716Z,5.80
2023-04-03T04:28:58.184Z,5.13
2023-04-03T04:31:27.035Z,6.27
2023-04-03T04:33:55.842Z,5.57
2023-04-03T04:36:26.737Z,4.60
2023-04-03T04:39:06.695Z,5.17
2023-04-03T04:41:35.790Z,5.93
2023-04-03T04:44:04.118Z,4.40
2023-04-03T04:46:33.542Z,3.97
2023-04-03T04:49:02.244Z,4.33
2023-04-03T04:51:40.996Z,5.70
2023-04-03T04:54:18.672Z,4.93
2023-04-03T04:56:51.975Z,5.30
2023-04-03T04:59:21.471Z,5.83
2023-04-03T05:01:50.039Z,4.10
2023-04-03T05:04:20.360Z,4.20
2023-04-03T05:06:49.051Z,3.97
2023-04-03T05:09:17.554Z,6.20
2023-04-03T05:11:48.469Z,4.90
2023-04-03T05:14:16.900Z,4.23
2023-04-03T05:16:45.055Z,5.70
2023-04-03T05:19:14.145Z,5.80
2023-04-03T05:21:44.206Z,6.33
2023-04-03T05:24:12.671Z,5.60
2023-04-03T05:26:41.123Z,5.77
2023-04-03T05:29:09.470Z,4.27
2023-04-03T05:31:38.211Z,5.43
2023-04-03T05:34:08.261Z,4.70
2023-04-03T05:36:36.964Z,6.57
2023-04-03T05:39:05.377Z,5.70
2023-04-03T05:41:34.003Z,7.20
2023-04-03T05:44:03.512Z,5.37
2023-04-03T05:46:31.778Z,4.60
2023-04-03T05:49:02.089Z,6.57
2023-04-03T05:51:36.963Z,4.70
2023-04-03T05:54:28.837Z,4.10
2023-04-03T05:56:57.466Z,4.33
2023-04-03T05:59:26.603Z,5.00
2023-04-03T06:01:59.227Z,4.17
2023-04-03T06:04:27.740Z,4.90
2023-04-03T06:06:58.866Z,4.63
2023-04-03T06:09:31.341Z,4.83
2023-04-03T06:12:02.026Z,4.20
2023-04-03T06:14:30.564Z,3.90
2023-04-03T06:17:01.951Z,4.47
2023-04-03T06:19:30.940Z,4.43
2023-04-03T06:21:59.155Z,5.50
2023-04-03T06:24:27.754Z,4.70
2023-04-03T06:26:56.294Z,4.37
2023-04-03T06:29:25.469Z,2.93
2023-04-03T06:31:56.342Z,4.67
2023-04-03T06:34:25.026Z,4.53
2023-04-03T06:36:54.036Z,4.47
2023-04-03T06:42:13.170Z,4.40
2023-04-03T06:44:41.635Z,4.57
2023-04-03T06:47:14.067Z,5.57
2023-04-03T06:49:44.062Z,3.87
2023-04-03T06:52:13.716Z,5.70
2023-04-03T06:54:44.711Z,5.00
2023-04-03T06:57:16.650Z,3.90
2023-04-03T06:59:44.919Z,4.33
2023-04-03T07:02:15.517Z,6.20
2023-04-03T07:04:43.901Z,4.57
2023-04-03T07:07:12.632Z,5.87
2023-04-03T07:09:41.571Z,4.23
2023-04-03T07:12:16.371Z,2.43
2023-04-03T07:14:45.174Z,3.53
2023-04-03T07:17:13.596Z,3.07
2023-04-03T07:19:45.709Z,2.63
2023-04-03T07:22:14.376Z,2.67
2023-04-03T07:24:42.763Z,4.20
2023-04-03T07:39:11.089Z,2.90
2023-04-03T07:41:41.687Z,2.40
2023-04-03T07:44:13.338Z,3.47
2023-04-03T07:46:42.216Z,2.37
2023-04-03T07:49:10.750Z,3.50
2023-04-03T07:51:43.194Z,3.57
2023-04-03T07:54:12.444Z,4.37
2023-04-03T07:56:40.926Z,5.67
2023-04-03T07:59:10.016Z,3.27
2023-04-03T08:01:40.427Z,4.40
2023-04-03T08:04:09.436Z,4.97
2023-04-03T08:06:47.358Z,5.03
2023-04-03T08:09:20.548Z,6.13
2023-04-03T08:11:54.759Z,5.07
2023-04-03T08:14:26.503Z,5.90
2023-04-03T08:17:05.774Z,6.60
2023-04-03T08:19:33.880Z,6.60
2023-04-03T08:22:04.335Z,5.07
2023-04-03T08:24:33.662Z,7.10
2023-04-03T08:27:02.277Z,7.77
2023-04-03T08:29:31.995Z,11.67
2023-04-03T08:32:02.327Z,8.37
2023-04-03T08:34:30.906Z,6.47
2023-04-03T08:37:03.518Z,9.60
2023-04-03T08:39:33.043Z,8.23
2023-04-03T08:42:08.576Z,7.33
2023-04-03T08:45:32.684Z,8.77
2023-04-03T08:48:53.536Z,9.23
2023-04-03T08:51:23.603Z,7.97
2023-04-03T08:53:59.915Z,8.60
2023-04-03T08:56:28.113Z,9.17
2023-04-03T08:59:07.137Z,9.57
2023-04-03T09:01:42.382Z,7.30
2023-04-03T09:04:19.876Z,8.63
2023-04-03T09:06:57.155Z,7.27
2023-04-03T09:09:34.276Z,7.10
2023-04-03T09:12:23.441Z,10.63
2023-04-03T09:14:57.570Z,9.17
2023-04-03T09:17:35.705Z,7.07
2023-04-03T09:20:14.600Z,8.63
2023-04-03T09:22:49.684Z,43.37
2023-04-03T09:25:24.920Z,17.07
2023-04-03T09:27:53.606Z,9.30
2023-04-03T09:30:32.744Z,11.17
2023-04-03T09:33:01.484Z,10.73
2023-04-03T09:35:44.763Z,10.57
2023-04-03T09:38:19.301Z,9.93
2023-04-03T09:40:52.210Z,8.03
2023-04-03T09:43:23.754Z,7.97
2023-04-03T09:45:53.298Z,6.23
2023-04-03T09:48:26.835Z,5.33
2023-04-03T09:51:06.927Z,7.43
2023-04-03T09:53:41.637Z,6.47
2023-04-03T09:56:17.497Z,5.27
2023-04-03T09:58:53.030Z,7.60
2023-04-03T10:01:34.411Z,5.63
2023-04-03T10:04:24.127Z,7.70
2023-04-03T10:06:56.249Z,7.10
2023-04-03T10:09:32.915Z,5.37
2023-04-03T10:12:11.793Z,4.57
2023-04-03T10:14:46.170Z,5.37
2023-04-03T10:17:43.828Z,5.63
2023-04-03T10:20:28.771Z,6.80
2023-04-03T10:23:24.686Z,4.87
2023-04-03T10:26:05.839Z,9.80
2023-04-03T10:29:14.604Z,5.23
2023-04-03T10:31:58.951Z,5.10
2023-04-03T10:34:36.881Z,3.63
2023-04-03T10:37:30.343Z,4.87
2023-04-03T10:40:12.505Z,4.93
2023-04-03T10:43:01.558Z,3.07
2023-04-03T10:46:05.013Z,3.47
2023-04-03T10:48:46.000Z,3.43
2023-04-03T10:51:40.742Z,3.20
2023-04-03T10:54:14.404Z,20.40
2023-04-03T10:57:08.582Z,4.37
2023-04-03T11:00:05.540Z,4.17
2023-04-03T11:03:00.308Z,4.27
2023-04-03T11:05:33.869Z,6.23
2023-04-03T11:08:36.518Z,2.53
2023-04-03T11:11:22.909Z,3.03
2023-04-03T11:14:10.287Z,2.40
2023-04-03T11:16:54.269Z,2.80
2023-04-03T11:19:51.367Z,3.13
2023-04-03T11:22:28.804Z,7.43
2023-04-03T11:25:14.107Z,21.53
2023-04-03T11:27:45.012Z,22.27
2023-04-03T11:30:22.496Z,23.20
2023-04-03T11:33:07.852Z,22.13
2023-04-03T11:35:39.708Z,16.70
2023-04-03T11:38:10.501Z,10.03
2023-04-03T11:40:41.706Z,10.20
2023-04-03T11:43:31.848Z,28.53
2023-04-03T11:46:05.281Z,17.03
2023-04-03T11:48:37.763Z,21.67
2023-04-03T11:51:13.959Z,17.20
2023-04-03T11:53:42.857Z,13.37
2023-04-03T11:56:25.132Z,8.80
2023-04-03T11:59:11.945Z,8.00
2023-04-03T12:01:46.524Z,10.73
2023-04-03T12:04:18.073Z,8.27
2023-04-03T12:06:46.796Z,7.37
2023-04-03T12:09:33.773Z,6.97
2023-04-03T12:12:22.690Z,8.47
2023-04-03T12:14:53.567Z,7.73
2023-04-03T12:17:29.849Z,10.53
2023-04-03T12:19:57.971Z,9.90
2023-04-03T12:22:26.129Z,18.23
2023-04-03T12:24:54.504Z,12.53
2023-04-03T12:27:38.526Z,10.97
2023-04-03T12:30:28.043Z,10.77
2023-04-03T12:33:19.455Z,9.00
2023-04-03T12:36:09.423Z,10.40
2023-04-03T12:39:21.511Z,10.20
2023-04-03T12:42:21.625Z,10.33
2023-04-03T12:45:16.706Z,10.10
2023-04-03T12:47:46.731Z,9.47
2023-04-03T12:50:34.090Z,10.90
2023-04-03T12:53:06.653Z,9.80
2023-04-03T12:55:34.656Z,10.43
2023-04-03T12:58:29.508Z,9.57
2023-04-03T13:01:16.187Z,11.67
2023-04-03T13:03:50.226Z,10.87
2023-04-03T13:06:32.454Z,9.43
2023-04-03T13:09:02.929Z,10.60
2023-04-03T13:11:39.569Z,10.47
2023-04-03T13:14:17.577Z,13.63
2023-04-03T13:17:00.286Z,14.13
2023-04-03T13:19:30.094Z,10.57
2023-04-03T13:22:22.915Z,12.23
2023-04-03T13:24:52.553Z,11.13
2023-04-03T13:27:22.897Z,11.67
2023-04-03T13:29:53.850Z,13.43
2023-04-03T13:32:39.995Z,27.53
2023-04-03T13:35:37.380Z,14.07
2023-04-03T13:38:26.033Z,13.53
2023-04-03T13:41:13.911Z,17.50
2023-04-03T13:43:43.163Z,13.83
2023-04-03T13:46:24.030Z,12.40
2023-04-03T13:48:55.002Z,11.47
2023-04-03T13:51:30.948Z,11.63
2023-04-03T13:54:26.797Z,11.50
2023-04-03T13:56:58.403Z,12.97
2023-04-03T13:59:37.212Z,10.73
2023-04-03T14:02:06.491Z,11.37
2023-04-03T14:04:38.429Z,13.20
2023-04-03T14:07:07.982Z,12.73
2023-04-03T14:09:40.072Z,11.97
2023-04-03T14:12:30.014Z,9.90
2023-04-03T14:15:27.945Z,9.70
2023-04-03T14:17:57.037Z,11.63
2023-04-03T14:20:28.117Z,13.47
2023-04-03T14:22:57.640Z,11.33
2023-04-03T14:25:26.972Z,10.60
2023-04-03T14:27:57.708Z,10.87
2023-04-03T14:30:30.381Z,13.23
2023-04-03T14:32:59.540Z,8.10
2023-04-03T14:35:28.171Z,9.73
2023-04-03T14:37:59.859Z,9.07
2023-04-03T14:40:29.168Z,10.07
2023-04-03T14:42:58.724Z,8.33
2023-04-03T14:45:27.890Z,7.20
2023-04-03T14:47:58.109Z,6.57
2023-04-03T14:50:28.092Z,8.17
2023-04-03T14:52:59.186Z,6.93
2023-04-03T14:55:29.056Z,9.27
2023-04-03T14:57:57.148Z,8.13
2023-04-03T15:00:33.768Z,6.13
2023-04-03T15:03:25.167Z,8.00
2023-04-03T15:05:54.333Z,8.90
2023-04-03T15:08:25.409Z,8.53
2023-04-03T15:10:54.662Z,8.97
2023-04-03T15:13:25.168Z,9.77
2023-04-03T15:15:53.496Z,9.43
2023-04-03T15:18:24.164Z,9.03
2023-04-03T15:20:52.298Z,8.73
2023-04-03T15:23:21.303Z,8.67
2023-04-03T15:25:51.844Z,14.87
2023-04-03T15:28:29.544Z,10.60
2023-04-03T15:30:58.159Z,25.73
2023-04-03T15:33:27.722Z,11.10
2023-04-03T15:36:02.954Z,13.30
2023-04-03T15:38:40.439Z,9.33
2023-04-03T15:41:08.985Z,8.43
2023-04-03T15:43:37.147Z,8.97
2023-04-03T15:46:09.288Z,9.33
2023-04-03T15:48:38.199Z,10.00
2023-04-03T15:51:09.706Z,7.93
2023-04-03T15:53:41.093Z,8.47
2023-04-03T15:56:11.099Z,13.77
2023-04-03T15:58:40.292Z,12.00
2023-04-03T16:01:10.310Z,12.73
2023-04-03T16:03:45.251Z,8.23
2023-04-03T16:06:17.360Z,15.80
2023-04-03T16:08:46.510Z,15.93
2023-04-03T16:11:16.387Z,10.70
2023-04-03T16:13:47.950Z,11.57
2023-04-03T16:16:16.630Z,15.47
2023-04-03T16:18:49.583Z,14.63
2023-04-03T16:21:22.425Z,15.93
2023-04-03T16:23:52.464Z,19.73
2023-04-03T16:26:25.223Z,34.77
2023-04-03T16:28:54.991Z,30.67
2023-04-03T16:31:24.753Z,32.50
2023-04-03T16:33:53.839Z,30.77
2023-04-03T16:36:22.235Z,39.23
2023-04-03T16:38:51.154Z,41.03
2023-04-03T16:41:19.431Z,45.43
2023-04-03T16:43:47.329Z,51.33
2023-04-03T16:46:15.800Z,58.00
2023-04-03T16:48:43.801Z,54.90
2023-04-03T16:51:16.427Z,51.23
2023-04-03T16:53:45.079Z,47.57
2023-04-03T16:56:16.568Z,39.73
2023-04-03T16:58:50.133Z,40.90
2023-04-03T17:01:23.913Z,40.93
2023-04-03T17:03:55.949Z,43.33
2023-04-03T17:06:25.563Z,36.13
2023-04-03T17:08:55.222Z,41.03
2023-04-03T17:11:24.578Z,37.43
2023-04-03T17:13:55.777Z,39.77
2023-04-03T17:16:24.162Z,48.03
2023-04-03T17:18:54.686Z,49.27
2023-04-03T17:21:28.042Z,46.37
2023-04-03T17:24:02.643Z,46.53
2023-04-03T17:26:34.169Z,45.97
2023-04-03T17:29:02.222Z,45.73
2023-04-03T17:31:31.111Z,52.10
2023-04-03T17:34:02.354Z,50.67
2023-04-03T17:36:35.882Z,56.10
2023-04-03T17:39:06.805Z,64.30
2023-04-03T17:41:35.867Z,64.37
2023-04-03T17:44:07.489Z,72.77
2023-04-03T17:46:38.196Z,70.23
2023-04-03T17:49:06.451Z,67.70
2023-04-03T17:51:34.782Z,91.10
2023-04-03T17:54:05.761Z,72.63
2023-04-03T17:56:34.192Z,66.23
2023-04-03T17:59:03.049Z,70.27
2023-04-03T18:01:35.115Z,64.23
2023-04-03T18:04:08.032Z,71.83
2023-04-03T18:06:44.362Z,71.93
2023-04-03T18:09:19.326Z,70.70
2023-04-03T18:11:53.330Z,66.67
2023-04-03T18:14:26.367Z,70.40
2023-04-03T18:16:57.987Z,76.70
2023-04-03T18:19:29.771Z,74.27
2023-04-03T18:22:05.501Z,71.87
2023-04-03T18:24:36.695Z,63.97
2023-04-03T18:27:16.110Z,61.67
2023-04-03T18:29:48.129Z,58.63
2023-04-03T18:32:20.034Z,64.53
2023-04-03T18:34:48.389Z,59.53
2023-04-03T18:37:21.437Z,54.43
2023-04-03T18:39:50.196Z,63.70
2023-04-03T18:42:24.251Z,56.97
2023-04-03T18:44:57.939Z,55.37
2023-04-03T18:47:31.148Z,51.80
2023-04-03T18:50:02.241Z,54.70
2023-04-03T18:52:31.206Z,54.00
2023-04-03T18:55:28.750Z,52.77
2023-04-03T18:58:01.723Z,50.80
2023-04-03T19:00:34.102Z,48.10
2023-04-03T19:03:19.126Z,47.27
2023-04-03T19:05:47.628Z,50.00
2023-04-03T19:08:16.258Z,39.57
2023-04-03T19:10:44.622Z,35.63
2023-04-03T19:13:12.914Z,36.90
2023-04-03T19:15:42.584Z,36.27
2023-04-03T19:18:10.992Z,34.57
2023-04-03T19:20:48.191Z,31.33
2023-04-03T19:23:17.861Z,28.50
2023-04-03T19:25:46.328Z,24.00
2023-04-03T19:28:14.962Z,25.60
2023-04-03T19:30:44.010Z,25.47
2023-04-03T19:33:14.806Z,23.27
2023-04-03T19:35:43.384Z,21.53
2023-04-03T19:38:13.937Z,23.53
2023-04-03T19:40:46.089Z,29.77
2023-04-03T19:43:15.586Z,26.00
2023-04-03T19:45:44.684Z,31.77
2023-04-03T19:48:16.685Z,31.07
2023-04-03T19:50:46.230Z,28.00
2023-04-03T19:53:19.172Z,27.47
2023-04-03T19:55:50.649Z,27.13
2023-04-03T19:58:18.872Z,27.97
2023-04-03T20:00:47.143Z,26.57
2023-04-03T20:03:16.553Z,28.47
2023-04-03T20:05:46.844Z,27.73
2023-04-03T20:08:19.949Z,30.83
2023-04-03T20:10:51.447Z,26.80
2023-04-03T20:13:23.047Z,30.90
2023-04-03T20:15:52.871Z,29.97
2023-04-03T20:18:22.562Z,29.03
2023-04-03T20:21:01.459Z,25.70
2023-04-03T20:23:30.482Z,26.37
2023-04-03T20:26:10.890Z,26.33
2023-04-03T20:28:43.993Z,26.83
2023-04-03T20:31:18.357Z,29.80
2023-04-03T20:33:49.077Z,40.77
2023-04-03T20:36:18.407Z,49.77
2023-04-03T20:38:48.305Z,58.70
2023-04-03T20:41:20.346Z,63.00
2023-04-03T20:43:52.223Z,81.67
2023-04-03T20:46:21.259Z,95.00
2023-04-03T20:48:49.662Z,101.10
2023-04-03T20:51:22.736Z,112.47
2023-04-03T20:53:53.921Z,119.83
2023-04-03T20:56:22.600Z,131.90
2023-04-03T20:58:58.433Z,93.70
2023-04-03T21:01:27.502Z,74.20
2023-04-03T21:04:06.211Z,50.17
2023-04-03T21:07:12.851Z,37.93
2023-04-03T21:10:19.110Z,27.93
2023-04-03T21:13:27.167Z,26.63
2023-04-03T21:15:56.110Z,22.20
2023-04-03T21:19:06.530Z,23.17
2023-04-03T21:21:36.816Z,24.13
2023-04-03T21:24:07.219Z,21.47
2023-04-03T21:26:38.939Z,20.57
2023-04-03T21:29:11.283Z,22.93
2023-04-03T21:31:54.054Z,23.20
2023-04-03T21:34:26.354Z,25.27
2023-04-03T21:37:13.221Z,26.07
2023-04-03T21:39:46.024Z,23.43
2023-04-03T21:42:14.490Z,36.60
2023-04-03T21:44:42.592Z,27.40
2023-04-03T21:47:12.110Z,27.43
2023-04-03T21:49:40.669Z,39.03
2023-04-03T21:52:35.345Z,61.17
2023-04-03T21:55:04.246Z,72.83
2023-04-03T21:57:37.108Z,72.03
2023-04-03T22:00:11.250Z,58.83
2023-04-03T22:03:09.934Z,56.80
2023-04-03T22:05:40.180Z,48.57
2023-04-03T22:08:09.929Z,46.43
2023-04-03T22:10:41.712Z,37.93
2023-04-03T22:13:10.897Z,33.57
2023-04-03T22:15:47.974Z,31.33
2023-04-03T22:18:18.505Z,33.13
2023-04-03T22:20:47.344Z,25.27
2023-04-03T22:23:15.868Z,23.57
2023-04-03T22:25:44.320Z,28.67
2023-04-03T22:28:13.980Z,27.33
2023-04-03T22:30:43.940Z,26.67
2023-04-03T22:33:12.517Z,26.07
2023-04-03T22:35:51.314Z,25.13
2023-04-03T22:38:20.337Z,26.87
2023-04-03T22:41:01.601Z,27.60
2023-04-03T22:43:31.809Z,23.53
2023-04-03T22:46:03.025Z,21.33
2023-04-03T22:48:34.402Z,23.43
2023-04-03T22:51:07.790Z,21.03
2023-04-03T22:53:36.288Z,22.90
2023-04-03T22:56:11.782Z,20.47
2023-04-03T22:58:41.100Z,21.20
2023-04-03T23:01:13.991Z,19.83
2023-04-03T23:03:43.581Z,21.07
2023-04-03T23:06:14.576Z,22.67
2023-04-03T23:08:46.163Z,21.57
2023-04-03T23:11:14.916Z,21.00
2023-04-03T23:13:45.496Z,22.40
2023-04-03T23:16:14.002Z,22.27
2023-04-03T23:18:44.060Z,20.20
2023-04-03T23:21:17.788Z,20.77
2023-04-03T23:23:46.716Z,20.73
2023-04-03T23:26:16.092Z,23.27
2023-04-03T23:28:45.265Z,25.20
2023-04-03T23:31:15.886Z,31.70
2023-04-03T23:33:44.855Z,26.40
2023-04-03T23:36:14.022Z,33.07
2023-04-03T23:38:43.460Z,29.47
2023-04-03T23:41:15.278Z,29.10
2023-04-03T23:43:43.673Z,32.03
2023-04-03T23:46:12.433Z,30.37
2023-04-03T23:48:41.085Z,29.07
2023-04-03T23:51:11.084Z,26.57
2023-04-03T23:53:41.382Z,29.53
2023-04-03T23:56:13.491Z,25.33
2023-04-03T23:58:43.551Z,25.77
